createdAt,value
2019-02-07T00:00:54.935Z,0
2019-02-07T00:02:02.997Z,0
2019-02-07T00:03:11.055Z,0
2019-02-07T00:04:19.105Z,0
2019-02-07T00:05:27.152Z,0
2019-02-07T00:06:35.211Z,0
2019-02-07T00:07:43.261Z,0
2019-02-07T00:08:51.341Z,0
2019-02-07T00:09:59.372Z,0
2019-02-07T00:11:07.409Z,0
2019-02-07T00:12:15.470Z,0
2019-02-07T00:13:23.533Z,0
2019-02-07T00:14:39.443Z,0
2019-02-07T00:15:39.644Z,0
2019-02-07T00:16:47.704Z,0
2019-02-07T00:17:55.754Z,0
2019-02-07T00:19:03.807Z,0
2019-02-07T00:20:11.824Z,0
2019-02-07T00:21:19.912Z,0
2019-02-07T00:22:27.958Z,0
2019-02-07T00:23:36.015Z,0
2019-02-07T00:24:44.063Z,0
2019-02-07T00:25:52.125Z,0
2019-02-07T00:27:00.170Z,0
2019-02-07T00:28:08.230Z,0
2019-02-07T00:29:16.282Z,0
2019-02-07T00:30:24.322Z,0
2019-02-07T00:31:32.362Z,0
2019-02-07T00:32:40.441Z,0
2019-02-07T00:33:48.502Z,0
2019-02-07T00:34:56.555Z,0
2019-02-07T00:36:04.603Z,0
2019-02-07T00:37:12.693Z,0
2019-02-07T00:38:20.706Z,0
2019-02-07T00:39:28.768Z,0
2019-02-07T00:40:36.828Z,0
2019-02-07T00:41:44.869Z,0
2019-02-07T00:42:52.928Z,0
2019-02-07T00:44:00.965Z,0
2019-02-07T00:45:09.025Z,0
2019-02-07T00:46:17.083Z,0
2019-02-07T00:47:25.139Z,0
2019-02-07T00:48:33.190Z,0
2019-02-07T00:49:41.249Z,0
2019-02-07T00:50:49.288Z,0
2019-02-07T00:51:57.345Z,0
2019-02-07T00:53:05.410Z,0
2019-02-07T00:54:13.460Z,0
2019-02-07T00:55:21.485Z,0
2019-02-07T00:56:29.564Z,0
2019-02-07T00:57:37.612Z,0
2019-02-07T00:58:45.707Z,0
2019-02-07T00:59:53.726Z,0
2019-02-07T01:01:01.791Z,0
2019-02-07T01:02:09.865Z,0
2019-02-07T01:03:17.892Z,0
2019-02-07T01:04:25.936Z,0
2019-02-07T01:05:33.988Z,0
2019-02-07T01:06:42.034Z,0
2019-02-07T01:07:50.099Z,0
2019-02-07T01:08:58.157Z,0
2019-02-07T01:10:06.204Z,4
2019-02-07T01:11:14.270Z,0
2019-02-07T01:12:22.307Z,0
2019-02-07T01:13:30.367Z,0
2019-02-07T01:14:38.404Z,0
2019-02-07T01:15:46.464Z,0
2019-02-07T01:16:54.520Z,0
2019-02-07T01:18:02.576Z,0
2019-02-07T01:19:10.639Z,0
2019-02-07T01:20:18.679Z,0
2019-02-07T01:21:26.733Z,0
2019-02-07T01:22:34.792Z,0
2019-02-07T01:23:42.846Z,0
2019-02-07T01:24:50.904Z,0
2019-02-07T01:25:58.954Z,0
2019-02-07T01:27:06.995Z,0
2019-02-07T01:28:15.051Z,0
2019-02-07T01:29:23.131Z,0
2019-02-07T01:30:31.160Z,0
2019-02-07T01:31:39.206Z,0
2019-02-07T01:32:47.272Z,0
2019-02-07T01:33:55.317Z,0
2019-02-07T01:35:03.365Z,0
2019-02-07T01:36:11.401Z,0
2019-02-07T01:37:19.481Z,0
2019-02-07T01:38:27.543Z,0
2019-02-07T01:39:35.585Z,0
2019-02-07T01:40:43.657Z,0
2019-02-07T01:41:51.668Z,0
2019-02-07T01:42:59.758Z,0
2019-02-07T01:44:07.814Z,0
2019-02-07T01:45:15.854Z,0
2019-02-07T01:46:23.916Z,0
2019-02-07T01:47:31.941Z,0
2019-02-07T01:48:40.053Z,0
2019-02-07T01:49:48.076Z,0
2019-02-07T01:50:56.222Z,0
2019-02-07T01:52:04.183Z,0
2019-02-07T01:53:12.205Z,0
2019-02-07T01:54:20.288Z,0
2019-02-07T01:55:28.329Z,0
2019-02-07T01:56:36.395Z,0
2019-02-07T01:57:44.445Z,0
2019-02-07T01:58:52.493Z,0
2019-02-07T02:00:00.535Z,0
2019-02-07T02:01:08.610Z,0
2019-02-07T02:02:16.658Z,0
2019-02-07T02:03:24.700Z,0
2019-02-07T02:04:32.776Z,0
2019-02-07T02:05:40.823Z,0
2019-02-07T02:06:48.900Z,0
2019-02-07T02:07:56.919Z,0
2019-02-07T02:09:05.015Z,0
2019-02-07T02:10:13.037Z,0
2019-02-07T02:11:21.077Z,0
2019-02-07T02:12:29.149Z,0
2019-02-07T02:13:37.179Z,0
2019-02-07T02:14:45.239Z,0
2019-02-07T02:15:53.304Z,0
2019-02-07T02:17:01.336Z,0
2019-02-07T02:18:09.396Z,0
2019-02-07T02:19:17.469Z,0
2019-02-07T02:20:25.515Z,0
2019-02-07T02:21:33.563Z,0
2019-02-07T02:22:41.584Z,0
2019-02-07T02:23:49.672Z,0
2019-02-07T02:24:57.727Z,0
2019-02-07T02:26:05.790Z,0
2019-02-07T02:27:13.866Z,0
2019-02-07T02:28:21.862Z,0
2019-02-07T02:29:29.932Z,0
2019-02-07T02:30:38.002Z,0
2019-02-07T02:31:46.041Z,0
2019-02-07T02:32:54.101Z,0
2019-02-07T02:34:02.128Z,0
2019-02-07T02:35:10.181Z,0
2019-02-07T02:36:18.246Z,0
2019-02-07T02:37:26.308Z,0
2019-02-07T02:38:34.365Z,0
2019-02-07T02:39:42.409Z,0
2019-02-07T02:40:50.459Z,0
2019-02-07T02:41:58.521Z,0
2019-02-07T02:43:06.587Z,0
2019-02-07T02:44:14.631Z,0
2019-02-07T02:45:22.694Z,0
2019-02-07T02:46:30.764Z,0
2019-02-07T02:47:38.781Z,0
2019-02-07T02:48:46.830Z,0
2019-02-07T02:49:54.893Z,0
2019-02-07T02:51:02.943Z,0
2019-02-07T02:52:11.005Z,0
2019-02-07T02:53:19.049Z,0
2019-02-07T02:54:27.111Z,0
2019-02-07T02:55:35.157Z,0
2019-02-07T02:56:43.208Z,0
2019-02-07T02:57:51.258Z,0
2019-02-07T02:58:59.315Z,0
2019-02-07T03:00:07.368Z,0
2019-02-07T03:01:15.431Z,0
2019-02-07T03:02:23.477Z,0
2019-02-07T03:03:31.493Z,0
2019-02-07T03:04:39.575Z,0
2019-02-07T03:05:47.612Z,0
2019-02-07T03:06:55.688Z,0
2019-02-07T03:08:03.763Z,0
2019-02-07T03:09:11.777Z,0
2019-02-07T03:10:19.842Z,0
2019-02-07T03:11:27.906Z,0
2019-02-07T03:12:35.952Z,0
2019-02-07T03:13:44.073Z,0
2019-02-07T03:14:52.048Z,0
2019-02-07T03:16:00.115Z,0
2019-02-07T03:17:08.171Z,0
2019-02-07T03:18:16.214Z,0
2019-02-07T03:19:24.275Z,0
2019-02-07T03:20:32.304Z,0
2019-02-07T03:21:40.381Z,0
2019-02-07T03:22:48.426Z,0
2019-02-07T03:23:56.479Z,0
2019-02-07T03:25:04.542Z,0
2019-02-07T03:26:12.597Z,0
2019-02-07T03:27:20.648Z,0
2019-02-07T03:28:28.692Z,0
2019-02-07T03:29:36.783Z,0
2019-02-07T03:30:44.810Z,0
2019-02-07T03:31:52.846Z,0
2019-02-07T03:33:00.954Z,0
2019-02-07T03:34:08.975Z,0
2019-02-07T03:35:17.013Z,0
2019-02-07T03:36:25.057Z,0
2019-02-07T03:37:33.229Z,0
2019-02-07T03:38:41.167Z,0
2019-02-07T03:39:49.222Z,0
2019-02-07T03:40:57.285Z,0
2019-02-07T03:42:05.335Z,0
2019-02-07T03:43:13.387Z,0
2019-02-07T03:44:21.425Z,0
2019-02-07T03:45:29.500Z,0
2019-02-07T03:46:37.540Z,0
2019-02-07T03:47:45.606Z,0
2019-02-07T03:48:53.695Z,0
2019-02-07T03:50:01.697Z,0
2019-02-07T03:51:09.797Z,0
2019-02-07T03:52:17.843Z,0
2019-02-07T03:53:25.854Z,0
2019-02-07T03:54:33.922Z,0
2019-02-07T03:55:41.966Z,0
2019-02-07T03:56:50.029Z,0
2019-02-07T03:57:58.092Z,0
2019-02-07T03:59:06.146Z,0
2019-02-07T04:00:14.180Z,0
2019-02-07T04:01:22.241Z,0
2019-02-07T04:02:30.306Z,0
2019-02-07T04:03:38.346Z,0
2019-02-07T04:04:46.415Z,0
2019-02-07T04:05:54.461Z,0
2019-02-07T04:07:02.516Z,0
2019-02-07T04:08:10.659Z,0
2019-02-07T04:09:18.645Z,0
2019-02-07T04:10:26.681Z,0
2019-02-07T04:11:34.813Z,0
2019-02-07T04:12:42.786Z,0
2019-02-07T04:13:50.839Z,0
2019-02-07T04:14:58.892Z,0
2019-02-07T04:16:14.650Z,0
2019-02-07T04:17:14.991Z,0
2019-02-07T04:18:23.054Z,0
2019-02-07T04:19:31.096Z,0
2019-02-07T04:20:39.149Z,0
2019-02-07T04:21:47.212Z,0
2019-02-07T04:22:55.260Z,0
2019-02-07T04:24:03.308Z,0
2019-02-07T04:25:11.339Z,0
2019-02-07T04:26:19.418Z,0
2019-02-07T04:27:27.463Z,0
2019-02-07T04:28:35.548Z,0
2019-02-07T04:29:43.583Z,0
2019-02-07T04:30:51.596Z,0
2019-02-07T04:31:59.705Z,0
2019-02-07T04:33:07.740Z,0
2019-02-07T04:34:15.800Z,0
2019-02-07T04:35:23.845Z,0
2019-02-07T04:36:31.886Z,0
2019-02-07T04:37:39.954Z,0
2019-02-07T04:38:48.009Z,0
2019-02-07T04:39:56.066Z,0
2019-02-07T04:41:04.110Z,0
2019-02-07T04:42:12.156Z,0
2019-02-07T04:43:20.214Z,0
2019-02-07T04:44:28.273Z,0
2019-02-07T04:45:36.319Z,0
2019-02-07T04:46:44.375Z,0
2019-02-07T04:47:52.461Z,0
2019-02-07T04:49:00.492Z,0
2019-02-07T04:50:08.570Z,0
2019-02-07T04:51:16.594Z,0
2019-02-07T04:52:24.633Z,0
2019-02-07T04:53:32.711Z,0
2019-02-07T04:54:40.743Z,0
2019-02-07T04:55:48.798Z,0
2019-02-07T04:56:56.854Z,0
2019-02-07T04:58:04.913Z,0
2019-02-07T04:59:12.969Z,0
2019-02-07T05:00:21.018Z,0
2019-02-07T05:01:29.087Z,0
2019-02-07T05:02:37.115Z,0
2019-02-07T05:03:45.179Z,0
2019-02-07T05:04:53.238Z,0
2019-02-07T05:06:01.279Z,0
2019-02-07T05:07:09.341Z,0
2019-02-07T05:08:17.393Z,0
2019-02-07T05:09:25.482Z,0
2019-02-07T05:10:33.489Z,0
2019-02-07T05:11:41.527Z,0
2019-02-07T05:12:49.665Z,0
2019-02-07T05:13:57.786Z,0
2019-02-07T05:15:05.732Z,0
2019-02-07T05:16:13.776Z,0
2019-02-07T05:17:21.800Z,0
2019-02-07T05:18:29.879Z,0
2019-02-07T05:19:37.923Z,0
2019-02-07T05:20:45.987Z,0
2019-02-07T05:21:54.051Z,0
2019-02-07T05:23:02.068Z,0
2019-02-07T05:24:10.127Z,0
2019-02-07T05:25:18.177Z,0
2019-02-07T05:26:26.233Z,0
2019-02-07T05:27:35.035Z,0
2019-02-07T05:28:42.346Z,0
2019-02-07T05:29:50.407Z,0
2019-02-07T05:30:58.471Z,0
2019-02-07T05:32:06.510Z,0
2019-02-07T05:33:14.598Z,0
2019-02-07T05:34:22.629Z,0
2019-02-07T05:35:30.670Z,0
2019-02-07T05:36:38.725Z,0
2019-02-07T05:37:49.443Z,0
2019-02-07T05:38:54.838Z,0
2019-02-07T05:40:02.887Z,0
2019-02-07T05:41:10.935Z,0
2019-02-07T05:42:18.999Z,0
2019-02-07T05:43:27.036Z,0
2019-02-07T05:44:35.108Z,0
2019-02-07T05:45:43.146Z,0
2019-02-07T05:46:51.342Z,0
2019-02-07T05:47:59.250Z,0
2019-02-07T05:49:07.327Z,0
2019-02-07T05:50:15.373Z,0
2019-02-07T05:51:23.442Z,0
2019-02-07T05:52:31.494Z,0
2019-02-07T05:53:39.526Z,0
2019-02-07T05:54:47.576Z,0
2019-02-07T05:55:55.634Z,0
2019-02-07T05:57:03.693Z,0
2019-02-07T05:58:11.705Z,0
2019-02-07T05:59:19.791Z,0
2019-02-07T06:00:27.858Z,0
2019-02-07T06:01:35.907Z,0
2019-02-07T06:02:43.951Z,0
2019-02-07T06:03:51.984Z,0
2019-02-07T06:05:00.047Z,0
2019-02-07T06:06:08.128Z,0
2019-02-07T06:07:16.175Z,0
2019-02-07T06:08:24.219Z,0
2019-02-07T06:09:32.267Z,0
2019-02-07T06:10:40.331Z,0
2019-02-07T06:11:48.393Z,0
2019-02-07T06:12:56.446Z,0
2019-02-07T06:14:04.500Z,0
2019-02-07T06:15:12.595Z,4
2019-02-07T06:16:20.601Z,4
2019-02-07T06:17:28.650Z,0
2019-02-07T06:18:36.692Z,4
2019-02-07T06:19:44.762Z,4
2019-02-07T06:20:52.805Z,4
2019-02-07T06:22:00.867Z,4
2019-02-07T06:23:08.918Z,4
2019-02-07T06:24:17.005Z,8
2019-02-07T06:25:25.124Z,8
2019-02-07T06:26:33.087Z,12
2019-02-07T06:27:41.121Z,12
2019-02-07T06:28:49.184Z,16
2019-02-07T06:29:57.242Z,20
2019-02-07T06:31:05.291Z,24
2019-02-07T06:32:13.351Z,28
2019-02-07T06:33:21.380Z,36
2019-02-07T06:34:29.545Z,36
2019-02-07T06:35:37.509Z,48
2019-02-07T06:36:45.564Z,52
2019-02-07T06:37:53.621Z,60
2019-02-07T06:39:01.655Z,72
2019-02-07T06:40:09.708Z,80
2019-02-07T06:41:17.796Z,88
2019-02-07T06:42:25.805Z,92
2019-02-07T06:43:33.880Z,100
2019-02-07T06:44:41.906Z,108
2019-02-07T06:45:49.989Z,120
2019-02-07T06:46:58.053Z,132
2019-02-07T06:48:06.101Z,144
2019-02-07T06:49:14.157Z,160
2019-02-07T06:50:22.175Z,180
2019-02-07T06:51:30.281Z,196
2019-02-07T06:52:38.296Z,224
2019-02-07T06:53:46.405Z,244
2019-02-07T06:54:54.418Z,272
2019-02-07T06:56:02.509Z,300
2019-02-07T06:57:10.513Z,320
2019-02-07T06:58:18.576Z,352
2019-02-07T06:59:26.632Z,384
2019-02-07T07:00:34.695Z,412
2019-02-07T07:01:42.741Z,448
2019-02-07T07:02:50.788Z,480
2019-02-07T07:03:58.849Z,524
2019-02-07T07:05:06.884Z,560
2019-02-07T07:06:14.957Z,608
2019-02-07T07:07:23.000Z,644
2019-02-07T07:08:31.064Z,692
2019-02-07T07:09:39.114Z,740
2019-02-07T07:10:47.172Z,756
2019-02-07T07:11:55.230Z,796
2019-02-07T07:13:03.265Z,828
2019-02-07T07:14:11.320Z,868
2019-02-07T07:15:19.386Z,896
2019-02-07T07:16:27.461Z,956
2019-02-07T07:17:35.495Z,972
2019-02-07T07:18:43.557Z,1024
2019-02-07T07:19:51.574Z,1088
2019-02-07T07:20:59.654Z,1128
2019-02-07T07:22:07.697Z,1156
2019-02-07T07:23:15.768Z,1176
2019-02-07T07:24:23.811Z,1228
2019-02-07T07:25:31.866Z,1268
2019-02-07T07:26:39.921Z,1292
2019-02-07T07:27:48.066Z,1352
2019-02-07T07:28:56.037Z,1360
2019-02-07T07:30:04.088Z,1420
2019-02-07T07:31:12.104Z,1404
2019-02-07T07:32:21.035Z,1432
2019-02-07T07:33:28.246Z,1472
2019-02-07T07:34:36.297Z,1524
2019-02-07T07:35:44.351Z,1584
2019-02-07T07:36:52.875Z,1636
2019-02-07T07:38:00.490Z,1668
2019-02-07T07:39:08.523Z,1700
2019-02-07T07:40:16.566Z,1772
2019-02-07T07:41:25.329Z,1828
2019-02-07T07:42:33.352Z,1880
2019-02-07T07:43:41.159Z,1900
2019-02-07T07:44:49.429Z,1964
2019-02-07T07:45:57.122Z,2012
2019-02-07T07:47:04.904Z,2052
2019-02-07T07:48:12.939Z,2084
2019-02-07T07:49:21.054Z,2136
2019-02-07T07:50:29.106Z,2176
2019-02-07T07:51:37.119Z,2248
2019-02-07T07:52:45.156Z,2260
2019-02-07T07:53:53.209Z,2360
2019-02-07T07:55:01.296Z,2436
2019-02-07T07:56:09.327Z,2464
2019-02-07T07:57:17.366Z,2584
2019-02-07T07:58:25.430Z,2600
2019-02-07T07:59:33.509Z,2776
2019-02-07T08:00:41.573Z,2700
2019-02-07T08:01:49.602Z,2768
2019-02-07T08:02:57.664Z,2856
2019-02-07T08:04:05.700Z,2844
2019-02-07T08:05:13.896Z,2956
2019-02-07T08:06:21.836Z,3020
2019-02-07T08:07:30.514Z,3084
2019-02-07T08:08:38.182Z,3156
2019-02-07T08:09:46.317Z,3304
2019-02-07T08:10:54.138Z,3440
2019-02-07T08:12:02.242Z,3544
2019-02-07T08:13:10.156Z,3708
2019-02-07T08:14:18.194Z,3904
2019-02-07T08:15:26.860Z,4080
2019-02-07T08:16:34.715Z,4200
2019-02-07T08:17:47.232Z,4556
2019-02-07T08:18:50.420Z,4512
2019-02-07T08:19:58.473Z,4752
2019-02-07T08:21:06.529Z,4796
2019-02-07T08:22:14.675Z,4840
2019-02-07T08:23:22.647Z,4936
2019-02-07T08:24:30.689Z,4832
2019-02-07T08:25:38.745Z,5188
2019-02-07T08:26:46.794Z,5068
2019-02-07T08:27:54.859Z,5016
2019-02-07T08:29:02.909Z,5232
2019-02-07T08:30:11.534Z,5312
2019-02-07T08:31:19.030Z,5300
2019-02-07T08:32:27.118Z,5268
2019-02-07T08:33:35.377Z,5564
2019-02-07T08:34:43.736Z,5964
2019-02-07T08:35:51.525Z,5924
2019-02-07T08:36:59.285Z,5932
2019-02-07T08:38:07.758Z,6080
2019-02-07T08:39:15.436Z,6120
2019-02-07T08:40:23.506Z,6140
2019-02-07T08:41:31.540Z,6144
2019-02-07T08:42:39.963Z,6500
2019-02-07T08:43:48.269Z,6504
2019-02-07T08:44:55.682Z,6552
2019-02-07T08:46:03.796Z,6488
2019-02-07T08:47:11.784Z,6672
2019-02-07T08:48:19.861Z,6436
2019-02-07T08:49:27.900Z,6436
2019-02-07T08:50:35.957Z,6536
2019-02-07T08:51:44.006Z,6284
2019-02-07T08:52:52.065Z,6432
2019-02-07T08:54:00.119Z,6136
2019-02-07T08:55:08.192Z,6436
2019-02-07T08:56:16.306Z,6428
2019-02-07T08:57:24.292Z,6288
2019-02-07T08:58:32.419Z,6608
2019-02-07T08:59:40.751Z,6376
2019-02-07T09:00:48.475Z,6388
2019-02-07T09:01:56.670Z,6332
2019-02-07T09:03:04.672Z,6420
2019-02-07T09:04:12.634Z,6756
2019-02-07T09:05:20.685Z,6476
2019-02-07T09:06:28.760Z,6452
2019-02-07T09:07:36.809Z,6308
2019-02-07T09:08:44.854Z,6196
2019-02-07T09:09:52.945Z,6112
2019-02-07T09:11:01.585Z,5836
2019-02-07T09:12:09.024Z,5912
2019-02-07T09:13:17.108Z,5940
2019-02-07T09:14:25.142Z,5888
2019-02-07T09:15:33.190Z,5532
2019-02-07T09:16:41.236Z,5548
2019-02-07T09:17:49.294Z,5552
2019-02-07T09:18:57.365Z,5776
2019-02-07T09:20:05.407Z,5644
2019-02-07T09:21:13.471Z,5840
2019-02-07T09:22:23.771Z,6148
2019-02-07T09:23:29.588Z,6208
2019-02-07T09:24:37.632Z,6344
2019-02-07T09:25:45.687Z,6476
2019-02-07T09:26:54.073Z,6260
2019-02-07T09:28:01.827Z,6428
2019-02-07T09:29:09.893Z,6580
2019-02-07T09:30:17.912Z,6300
2019-02-07T09:31:25.993Z,6348
2019-02-07T09:32:34.056Z,6176
2019-02-07T09:33:42.077Z,6280
2019-02-07T09:34:50.144Z,6492
2019-02-07T09:36:04.772Z,6368
2019-02-07T09:37:06.250Z,6288
2019-02-07T09:38:14.296Z,6576
2019-02-07T09:39:22.367Z,6668
2019-02-07T09:40:30.420Z,6848
2019-02-07T09:41:38.487Z,6864
2019-02-07T09:42:46.546Z,6920
2019-02-07T09:43:54.589Z,7200
2019-02-07T09:45:02.980Z,7224
2019-02-07T09:46:10.701Z,7528
2019-02-07T09:47:18.785Z,7768
2019-02-07T09:48:26.825Z,8048
2019-02-07T09:49:34.896Z,8192
2019-02-07T09:50:42.940Z,8096
2019-02-07T09:51:50.997Z,8156
2019-02-07T09:52:59.072Z,8316
2019-02-07T09:54:07.120Z,8384
2019-02-07T09:55:15.169Z,8292
2019-02-07T09:56:23.210Z,8416
2019-02-07T09:57:31.283Z,8616
2019-02-07T09:58:39.340Z,8892
2019-02-07T09:59:47.393Z,9172
2019-02-07T10:00:55.487Z,9316
2019-02-07T10:02:03.499Z,9100
2019-02-07T10:03:11.545Z,9168
2019-02-07T10:04:19.621Z,9136
2019-02-07T10:05:27.721Z,8712
2019-02-07T10:06:36.252Z,8392
2019-02-07T10:07:43.796Z,8320
2019-02-07T10:08:51.859Z,8084
2019-02-07T10:09:59.922Z,7816
2019-02-07T10:11:08.389Z,7748
2019-02-07T10:12:16.032Z,7552
2019-02-07T10:13:24.094Z,7280
2019-02-07T10:14:32.123Z,7120
2019-02-07T10:15:40.202Z,7120
2019-02-07T10:16:48.917Z,7180
2019-02-07T10:17:56.313Z,7256
2019-02-07T10:19:04.373Z,7452
2019-02-07T10:20:12.435Z,7588
2019-02-07T10:21:20.497Z,7540
2019-02-07T10:22:28.558Z,7732
2019-02-07T10:23:36.611Z,7792
2019-02-07T10:24:44.681Z,7848
2019-02-07T10:25:52.709Z,8112
2019-02-07T10:27:00.824Z,7996
2019-02-07T10:28:08.848Z,7940
2019-02-07T10:29:16.990Z,7980
2019-02-07T10:30:24.969Z,8188
2019-02-07T10:31:33.002Z,8176
2019-02-07T10:32:41.134Z,8120
2019-02-07T10:33:49.136Z,8036
2019-02-07T10:34:57.187Z,7772
2019-02-07T10:36:05.248Z,7528
2019-02-07T10:37:13.334Z,7240
2019-02-07T10:38:21.378Z,7140
2019-02-07T10:39:29.428Z,7136
2019-02-07T10:40:37.483Z,7020
2019-02-07T10:41:45.586Z,7024
2019-02-07T10:42:53.604Z,6924
2019-02-07T10:44:01.641Z,6892
2019-02-07T10:45:09.733Z,6712
2019-02-07T10:46:17.769Z,6480
2019-02-07T10:47:25.820Z,6260
2019-02-07T10:48:43.936Z,6004
2019-02-07T10:49:41.937Z,5696
2019-02-07T10:50:49.998Z,5620
2019-02-07T10:51:58.058Z,5688
2019-02-07T10:53:06.136Z,5520
2019-02-07T10:54:14.178Z,5348
2019-02-07T10:55:22.210Z,5272
2019-02-07T10:56:30.283Z,5400
2019-02-07T10:57:38.346Z,5604
2019-02-07T10:58:46.396Z,5796
2019-02-07T10:59:54.465Z,5952
2019-02-07T11:01:02.522Z,6068
2019-02-07T11:02:10.580Z,5816
2019-02-07T11:03:18.643Z,5504
2019-02-07T11:04:26.703Z,5268
2019-02-07T11:05:34.786Z,5124
2019-02-07T11:06:42.856Z,5088
2019-02-07T11:07:50.877Z,5196
2019-02-07T11:08:58.935Z,5164
2019-02-07T11:10:07.023Z,5284
2019-02-07T11:11:15.058Z,5512
2019-02-07T11:12:23.106Z,5620
2019-02-07T11:13:31.155Z,5804
2019-02-07T11:14:39.208Z,6000
2019-02-07T11:15:47.732Z,6040
2019-02-07T11:16:55.323Z,5916
2019-02-07T11:18:03.408Z,5824
2019-02-07T11:19:20.848Z,5812
2019-02-07T11:20:19.502Z,5708
2019-02-07T11:21:27.589Z,5752
2019-02-07T11:22:35.629Z,5808
2019-02-07T11:23:44.197Z,6092
2019-02-07T11:24:51.717Z,6004
2019-02-07T11:25:59.793Z,5884
2019-02-07T11:27:07.852Z,5872
2019-02-07T11:28:15.923Z,5876
2019-02-07T11:29:23.994Z,5868
2019-02-07T11:30:32.004Z,5560
2019-02-07T11:31:40.084Z,5644
2019-02-07T11:32:48.142Z,5844
2019-02-07T11:33:56.240Z,5380
2019-02-07T11:35:04.265Z,5384
2019-02-07T11:36:12.302Z,5488
2019-02-07T11:37:20.415Z,5564
2019-02-07T11:38:28.419Z,5760
2019-02-07T11:39:36.497Z,5756
2019-02-07T11:40:44.583Z,5668
2019-02-07T11:41:52.607Z,5736
2019-02-07T11:43:00.680Z,5872
2019-02-07T11:44:08.729Z,6268
2019-02-07T11:45:16.798Z,6884
2019-02-07T11:46:24.838Z,7144
2019-02-07T11:47:32.897Z,7112
2019-02-07T11:48:40.952Z,6952
2019-02-07T11:49:49.018Z,6756
2019-02-07T11:50:57.107Z,6528
2019-02-07T11:52:05.151Z,6368
2019-02-07T11:53:13.181Z,6028
2019-02-07T11:54:21.246Z,5664
2019-02-07T11:55:29.287Z,5464
2019-02-07T11:56:37.387Z,5384
2019-02-07T11:57:45.426Z,5348
2019-02-07T11:58:53.478Z,5428
2019-02-07T12:00:01.523Z,5812
2019-02-07T12:01:09.595Z,6212
2019-02-07T12:02:17.662Z,6612
2019-02-07T12:03:25.764Z,6560
2019-02-07T12:04:33.779Z,6596
2019-02-07T12:05:41.846Z,6272
2019-02-07T12:06:49.885Z,6456
2019-02-07T12:07:57.954Z,6468
2019-02-07T12:09:05.992Z,6584
2019-02-07T12:10:14.072Z,6776
2019-02-07T12:11:22.118Z,6784
2019-02-07T12:12:30.195Z,6944
2019-02-07T12:13:38.227Z,6800
2019-02-07T12:14:46.283Z,7080
2019-02-07T12:15:54.358Z,7440
2019-02-07T12:17:02.408Z,7616
2019-02-07T12:18:10.491Z,7632
2019-02-07T12:19:18.541Z,7184
2019-02-07T12:20:26.579Z,7224
2019-02-07T12:21:34.636Z,7032
2019-02-07T12:22:42.746Z,7072
2019-02-07T12:23:50.769Z,7280
2019-02-07T12:24:58.825Z,7384
2019-02-07T12:26:06.965Z,7560
2019-02-07T12:27:14.942Z,7404
2019-02-07T12:28:22.982Z,7320
2019-02-07T12:29:31.048Z,7216
2019-02-07T12:30:39.112Z,7184
2019-02-07T12:31:47.187Z,6968
2019-02-07T12:32:55.219Z,6784
2019-02-07T12:34:03.277Z,6412
2019-02-07T12:35:11.349Z,6280
2019-02-07T12:36:19.416Z,6192
2019-02-07T12:37:27.514Z,6484
2019-02-07T12:38:35.518Z,6556
2019-02-07T12:39:43.576Z,6364
2019-02-07T12:40:51.616Z,5936
2019-02-07T12:41:59.683Z,6016
2019-02-07T12:43:07.761Z,6548
2019-02-07T12:44:15.799Z,6768
2019-02-07T12:45:23.878Z,6312
2019-02-07T12:46:31.911Z,5968
2019-02-07T12:47:40.021Z,5740
2019-02-07T12:48:48.043Z,5792
2019-02-07T12:49:56.092Z,5552
2019-02-07T12:51:04.163Z,5408
2019-02-07T12:52:12.186Z,5276
2019-02-07T12:53:20.273Z,5612
2019-02-07T12:54:28.340Z,5680
2019-02-07T12:55:36.383Z,5620
2019-02-07T12:56:44.445Z,5856
2019-02-07T12:57:52.514Z,6212
2019-02-07T12:59:00.583Z,6176
2019-02-07T13:00:08.632Z,6644
2019-02-07T13:01:16.684Z,7028
2019-02-07T13:02:24.768Z,7520
2019-02-07T13:03:32.807Z,8016
2019-02-07T13:04:40.869Z,7488
2019-02-07T13:05:48.920Z,6808
2019-02-07T13:06:56.988Z,6452
2019-02-07T13:08:05.043Z,6080
2019-02-07T13:09:13.112Z,5888
2019-02-07T13:10:21.165Z,6192
2019-02-07T13:11:29.206Z,5836
2019-02-07T13:12:37.282Z,5448
2019-02-07T13:13:45.387Z,5600
2019-02-07T13:14:53.442Z,5204
2019-02-07T13:16:01.497Z,5340
2019-02-07T13:17:09.521Z,5520
2019-02-07T13:18:17.572Z,5348
2019-02-07T13:19:25.623Z,5460
2019-02-07T13:20:33.719Z,5784
2019-02-07T13:21:41.740Z,5920
2019-02-07T13:22:49.798Z,5836
2019-02-07T13:23:59.414Z,5408
2019-02-07T13:25:05.940Z,5272
2019-02-07T13:26:14.099Z,5276
2019-02-07T13:27:22.044Z,5428
2019-02-07T13:28:30.126Z,5848
2019-02-07T13:29:38.264Z,5740
2019-02-07T13:30:46.222Z,5936
2019-02-07T13:31:54.276Z,5956
2019-02-07T13:33:02.314Z,5968
2019-02-07T13:34:10.459Z,6028
2019-02-07T13:35:18.462Z,6248
2019-02-07T13:36:26.499Z,6308
2019-02-07T13:37:34.707Z,6256
2019-02-07T13:38:42.656Z,6248
2019-02-07T13:39:50.679Z,6276
2019-02-07T13:40:58.739Z,6312
2019-02-07T13:42:06.837Z,6496
2019-02-07T13:43:14.861Z,6728
2019-02-07T13:44:22.909Z,6692
2019-02-07T13:45:30.974Z,6604
2019-02-07T13:46:39.373Z,6216
2019-02-07T13:47:47.089Z,6096
2019-02-07T13:48:55.144Z,6120
2019-02-07T13:50:03.216Z,5936
2019-02-07T13:51:11.269Z,5736
2019-02-07T13:52:19.325Z,5940
2019-02-07T13:53:27.408Z,5980
2019-02-07T13:54:35.441Z,5568
2019-02-07T13:55:43.495Z,6168
2019-02-07T13:56:51.542Z,6312
2019-02-07T13:57:59.606Z,6284
2019-02-07T13:59:07.661Z,6296
2019-02-07T14:00:15.742Z,5916
2019-02-07T14:01:23.794Z,5688
2019-02-07T14:02:31.822Z,5736
2019-02-07T14:03:39.908Z,5724
2019-02-07T14:04:48.002Z,5708
2019-02-07T14:05:56.012Z,5652
2019-02-07T14:07:04.125Z,5388
2019-02-07T14:08:12.132Z,5288
2019-02-07T14:09:20.199Z,5444
2019-02-07T14:10:28.266Z,5604
2019-02-07T14:11:36.321Z,5688
2019-02-07T14:12:44.392Z,5876
2019-02-07T14:13:52.440Z,5632
2019-02-07T14:15:00.515Z,5180
2019-02-07T14:16:08.553Z,4868
2019-02-07T14:17:16.619Z,4680
2019-02-07T14:18:24.678Z,4692
2019-02-07T14:19:32.725Z,4544
2019-02-07T14:20:40.792Z,4664
2019-02-07T14:21:48.854Z,4888
2019-02-07T14:22:56.925Z,4976
2019-02-07T14:24:04.981Z,4644
2019-02-07T14:25:13.031Z,4696
2019-02-07T14:26:21.092Z,4848
2019-02-07T14:27:29.159Z,5216
2019-02-07T14:28:37.201Z,5160
2019-02-07T14:29:45.264Z,4996
2019-02-07T14:30:53.345Z,4912
2019-02-07T14:32:01.374Z,4888
2019-02-07T14:33:09.574Z,4516
2019-02-07T14:34:17.540Z,4384
2019-02-07T14:35:25.556Z,3904
2019-02-07T14:36:33.610Z,3456
2019-02-07T14:37:41.661Z,3596
2019-02-07T14:38:49.732Z,3396
2019-02-07T14:39:57.781Z,2976
2019-02-07T14:41:05.911Z,2820
2019-02-07T14:42:13.904Z,2820
2019-02-07T14:43:21.994Z,2880
2019-02-07T14:44:30.027Z,3024
2019-02-07T14:45:38.091Z,3308
2019-02-07T14:46:46.160Z,3256
2019-02-07T14:47:54.191Z,3120
2019-02-07T14:49:02.248Z,2864
2019-02-07T14:50:14.662Z,2864
2019-02-07T14:51:18.375Z,2936
2019-02-07T14:52:26.433Z,2672
2019-02-07T14:53:34.488Z,2456
2019-02-07T14:54:42.574Z,2244
2019-02-07T14:55:50.582Z,2464
2019-02-07T14:56:58.670Z,2112
2019-02-07T14:58:06.715Z,1860
2019-02-07T14:59:14.782Z,1932
2019-02-07T15:00:22.872Z,1908
2019-02-07T15:01:30.923Z,2112
2019-02-07T15:02:38.955Z,2272
2019-02-07T15:03:47.011Z,2160
2019-02-07T15:04:55.064Z,2160
2019-02-07T15:06:03.193Z,2160
2019-02-07T15:07:11.182Z,2292
2019-02-07T15:08:19.248Z,2292
2019-02-07T15:09:27.296Z,2476
2019-02-07T15:10:35.361Z,2372
2019-02-07T15:11:43.402Z,2208
2019-02-07T15:12:51.466Z,2056
2019-02-07T15:13:59.540Z,2100
2019-02-07T15:15:07.595Z,2040
2019-02-07T15:16:15.657Z,1968
2019-02-07T15:17:23.711Z,1948
2019-02-07T15:18:31.748Z,1948
2019-02-07T15:19:39.820Z,1856
2019-02-07T15:20:47.872Z,1940
2019-02-07T15:21:55.958Z,2048
2019-02-07T15:23:03.996Z,1924
2019-02-07T15:24:12.044Z,1960
2019-02-07T15:25:20.142Z,1896
2019-02-07T15:26:28.215Z,1836
2019-02-07T15:27:36.240Z,1620
2019-02-07T15:28:44.289Z,1500
2019-02-07T15:29:52.328Z,1372
2019-02-07T15:31:00.410Z,1276
2019-02-07T15:32:08.469Z,1136
2019-02-07T15:33:16.505Z,1084
2019-02-07T15:34:24.575Z,1000
2019-02-07T15:35:32.632Z,1016
2019-02-07T15:36:40.680Z,988
2019-02-07T15:37:48.745Z,1028
2019-02-07T15:38:56.809Z,1108
2019-02-07T15:40:04.853Z,1176
2019-02-07T15:41:12.920Z,1228
2019-02-07T15:42:20.970Z,1296
2019-02-07T15:43:29.025Z,1336
2019-02-07T15:44:37.088Z,1436
2019-02-07T15:45:45.157Z,1424
2019-02-07T15:46:53.201Z,1332